To NAV CANADA Home Page Login to a new session Search on AWWS site Feedback and Comments Disclaimer Vers la page française équivalente Tips FAQ What's new on the site To the Forecasts and Observations / NOTAM section To "File a Flight Plan" website Publications and other links Update of the User's profile FIC Telephone Numbers My Weather Data Folder Route Weather Data Regional Weather Data Local Weather Data To the Forecasts and Observations / NOTAM section
Request Generated 05/01/2016 at 15:34:35 UTC . Weather information available at that time is displayed.

METAR/TAF

COLD LAKE/GROUP CAPTAIN R.W. MCNAIR/AB    

METAR CYOD 011500Z 24007KT 15SM FEW250 13/04 A3018 RMK CI1 SLP231=
METAR CYOD 011400Z 23006KT 15SM SCT250 10/03 A3019 RMK CI0 SLP237=
METAR CYOD 011300Z 23004KT 15SM SCT250 06/02 A3020 RMK CI1 SLP242=

TAF CYOD 011130Z 0112/0212 22005KT P6SM SKC
BECMG 0116/0118 26012KT
BECMG 0201/0203 27005KT
RMK NXT FCST BY 011800Z=
Your time UTC time
Weather data provided by Environment Canada and NAV CANADA